sensor_id;sensor_type;location;lat;lon;timestamp;pressure;altitude;pressure_sealevel;temperature;humidity
48644;BME280;34928;37.302;-121.984;2023-08-20T08:42:29;100304.0;;;22.45;63.28
48644;BME280;34928;37.302;-121.984;2023-08-20T08:52:33;100305.0;;;25.60;45.21
48644;BME280;34928;37.302;-121.984;2023-08-20T09:02:38;100264.0;;;26.27;42.05
48644;BME280;34928;37.302;-121.984;2023-08-20T09:12:42;100273.0;;;26.73;41.03
48644;BME280;34928;37.302;-121.984;2023-08-20T09:22:50;100258.0;;;26.77;40.95
48644;BME280;34928;37.302;-121.984;2023-08-20T09:43:14;100275.0;;;26.79;40.60
48644;BME280;34928;37.302;-121.984;2023-08-20T09:53:27;100278.0;;;26.91;40.30
48644;BME280;34928;37.302;-121.984;2023-08-20T10:03:33;100256.0;;;26.62;40.35
48644;BME280;34928;37.302;-121.984;2023-08-20T10:13:38;100259.0;;;26.78;40.46
48644;BME280;34928;37.302;-121.984;2023-08-20T10:23:44;100259.0;;;26.69;40.29
48644;BME280;34928;37.302;-121.984;2023-08-20T10:33:55;100272.0;;;27.35;39.01
48644;BME280;34928;37.302;-121.984;2023-08-20T10:44:03;100260.0;;;27.54;37.96
48644;BME280;34928;37.302;-121.984;2023-08-20T10:54:08;100232.0;;;27.50;38.35
48644;BME280;34928;37.302;-121.984;2023-08-20T11:04:14;100223.0;;;26.73;40.23
48644;BME280;34928;37.302;-121.984;2023-08-20T11:14:19;100208.0;;;26.65;40.57
48644;BME280;34928;37.302;-121.984;2023-08-20T11:24:24;100210.0;;;26.84;40.22
48644;BME280;34928;37.302;-121.984;2023-08-20T11:34:33;100201.0;;;26.67;40.50
48644;BME280;34928;37.302;-121.984;2023-08-20T11:44:46;100196.0;;;26.58;40.65
48644;BME280;34928;37.302;-121.984;2023-08-20T11:54:52;100207.0;;;27.00;39.92
48644;BME280;34928;37.302;-121.984;2023-08-20T12:04:58;100208.0;;;26.57;40.32
48644;BME280;34928;37.302;-121.984;2023-08-20T12:15:03;100214.0;;;26.66;40.08
48644;BME280;34928;37.302;-121.984;2023-08-20T12:25:08;100216.0;;;26.60;40.49
48644;BME280;34928;37.302;-121.984;2023-08-20T12:35:13;100222.0;;;26.80;40.21
48644;BME280;34928;37.302;-121.984;2023-08-20T12:45:17;100213.0;;;27.55;38.25
48644;BME280;34928;37.302;-121.984;2023-08-20T12:55:22;100214.0;;;26.84;40.15
48644;BME280;34928;37.302;-121.984;2023-08-20T13:05:28;100207.0;;;26.38;40.03
48644;BME280;34928;37.302;-121.984;2023-08-20T13:15:33;100221.0;;;26.88;39.55
48644;BME280;34928;37.302;-121.984;2023-08-20T13:25:39;100217.0;;;26.59;40.12
48644;BME280;34928;37.302;-121.984;2023-08-20T13:35:43;100224.0;;;26.64;40.48
48644;BME280;34928;37.302;-121.984;2023-08-20T13:45:47;100227.0;;;27.75;37.33
48644;BME280;34928;37.302;-121.984;2023-08-20T13:55:53;100231.0;;;27.11;39.16
48644;BME280;34928;37.302;-121.984;2023-08-20T14:05:57;100240.0;;;26.26;40.69
48644;BME280;34928;37.302;-121.984;2023-08-20T14:16:02;100245.0;;;27.12;39.01
48644;BME280;34928;37.302;-121.984;2023-08-20T14:26:07;100241.0;;;27.59;37.86
48644;BME280;34928;37.302;-121.984;2023-08-20T14:36:12;100240.0;;;26.65;39.51
48644;BME280;34928;37.302;-121.984;2023-08-20T14:46:17;100251.0;;;26.48;40.39
48644;BME280;34928;37.302;-121.984;2023-08-20T14:56:22;100254.0;;;26.42;40.12
48644;BME280;34928;37.302;-121.984;2023-08-20T15:06:27;100264.0;;;26.40;40.16
48644;BME280;34928;37.302;-121.984;2023-08-20T15:26:54;100253.0;;;27.92;37.03
48644;BME280;34928;37.302;-121.984;2023-08-20T15:37:03;100251.0;;;27.93;36.17
48644;BME280;34928;37.302;-121.984;2023-08-20T15:47:08;100232.0;;;28.44;34.67
48644;BME280;34928;37.302;-121.984;2023-08-20T15:57:13;100203.0;;;28.55;34.76
48644;BME280;34928;37.302;-121.984;2023-08-20T16:07:17;100172.0;;;28.61;34.57
48644;BME280;34928;37.302;-121.984;2023-08-20T16:17:23;100157.0;;;28.35;34.53
48644;BME280;34928;37.302;-121.984;2023-08-20T16:27:27;100155.0;;;28.65;34.37
48644;BME280;34928;37.302;-121.984;2023-08-20T16:37:33;100134.0;;;28.48;34.57
48644;BME280;34928;37.302;-121.984;2023-08-20T16:47:37;100114.0;;;28.35;35.76
48644;BME280;34928;37.302;-121.984;2023-08-20T16:57:42;100120.0;;;29.13;34.81
48644;BME280;34928;37.302;-121.984;2023-08-20T17:07:48;100119.0;;;28.73;34.42
48644;BME280;34928;37.302;-121.984;2023-08-20T17:17:52;100103.0;;;28.76;34.70
48644;BME280;34928;37.302;-121.984;2023-08-20T17:27:58;100096.0;;;28.64;35.43
48644;BME280;34928;37.302;-121.984;2023-08-20T17:38:03;100088.0;;;29.09;34.70
48644;BME280;34928;37.302;-121.984;2023-08-20T17:48:08;100083.0;;;28.66;34.78
48644;BME280;34928;37.302;-121.984;2023-08-20T17:58:13;100083.0;;;28.97;34.58
48644;BME280;34928;37.302;-121.984;2023-08-20T18:08:17;100074.0;;;29.08;34.55
48644;BME280;34928;37.302;-121.984;2023-08-20T18:18:23;100077.0;;;29.35;34.52
48644;BME280;34928;37.302;-121.984;2023-08-20T18:28:27;100063.0;;;29.39;34.61
48644;BME280;34928;37.302;-121.984;2023-08-20T18:38:41;100051.0;;;29.45;34.73
48644;BME280;34928;37.302;-121.984;2023-08-20T18:48:48;100032.0;;;29.26;34.89
48644;BME280;34928;37.302;-121.984;2023-08-20T18:58:53;100020.0;;;29.09;35.01
48644;BME280;34928;37.302;-121.984;2023-08-20T19:08:57;100005.0;;;29.11;35.02
48644;BME280;34928;37.302;-121.984;2023-08-20T19:19:03;99980.0;;;29.21;34.97
48644;BME280;34928;37.302;-121.984;2023-08-20T19:29:08;99966.0;;;29.33;34.92
48644;BME280;34928;37.302;-121.984;2023-08-20T19:39:13;99954.0;;;29.37;35.08
48644;BME280;34928;37.302;-121.984;2023-08-20T19:49:18;99943.0;;;29.43;35.19
48644;BME280;34928;37.302;-121.984;2023-08-20T19:59:24;99939.0;;;29.55;35.16
48644;BME280;34928;37.302;-121.984;2023-08-20T20:09:27;99929.0;;;29.39;35.18
48644;BME280;34928;37.302;-121.984;2023-08-20T20:19:33;99918.0;;;29.50;35.21
48644;BME280;34928;37.302;-121.984;2023-08-20T20:29:38;99912.0;;;29.91;35.14
48644;BME280;34928;37.302;-121.984;2023-08-20T20:39:43;99912.0;;;29.75;35.08
48644;BME280;34928;37.302;-121.984;2023-08-20T20:49:50;99904.0;;;30.08;35.11
48644;BME280;34928;37.302;-121.984;2023-08-20T20:59:57;99899.0;;;30.20;35.08
48644;BME280;34928;37.302;-121.984;2023-08-20T21:10:04;99892.0;;;29.48;33.02
48644;BME280;34928;37.302;-121.984;2023-08-20T21:20:09;99886.0;;;29.03;31.36
48644;BME280;34928;37.302;-121.984;2023-08-20T21:30:17;99882.0;;;29.03;30.08
48644;BME280;34928;37.302;-121.984;2023-08-20T21:40:23;99874.0;;;28.86;29.19
48644;BME280;34928;37.302;-121.984;2023-08-20T21:50:28;99858.0;;;28.80;28.74
48644;BME280;34928;37.302;-121.984;2023-08-20T22:00:33;99841.0;;;28.60;28.54
48644;BME280;34928;37.302;-121.984;2023-08-20T22:10:43;99822.0;;;29.01;28.09
48644;BME280;34928;37.302;-121.984;2023-08-20T22:20:47;99806.0;;;28.69;27.89
48644;BME280;34928;37.302;-121.984;2023-08-20T22:31:01;99791.0;;;28.59;27.50
48644;BME280;34928;37.302;-121.984;2023-08-20T22:41:07;99764.0;;;28.75;27.41
48644;BME280;34928;37.302;-121.984;2023-08-20T22:51:12;99747.0;;;28.46;27.37
48644;BME280;34928;37.302;-121.984;2023-08-20T23:01:18;99743.0;;;29.37;27.70
48644;BME280;34928;37.302;-121.984;2023-08-20T23:11:23;99725.0;;;29.45;29.59
48644;BME280;34928;37.302;-121.984;2023-08-20T23:21:27;99713.0;;;29.75;30.00
48644;BME280;34928;37.302;-121.984;2023-08-20T23:31:34;99706.0;;;29.83;30.13
48644;BME280;34928;37.302;-121.984;2023-08-20T23:41:38;99708.0;;;30.13;30.30
48644;BME280;34928;37.302;-121.984;2023-08-20T23:51:43;99703.0;;;30.32;30.68
